Terminal Aerodrome Forecast
Issued by NWS

Home | Current Version | Previous Version | Text Only | Print | Product List | Glossary Off
Versions: 1 2 3 4 5 6 7 8 9 10 11 12 13 14 15 16 17 18 19 20

000
FTUS43 KTOP 221720
TAFMHK
TAF
KMHK 221720Z 2218/2318 11011KT P6SM BKN130
     FM230000 13013KT P6SM OVC030
     FM230500 15010G18KT P6SM -DZ OVC015
     FM230800 14010G20KT P6SM -DZ OVC008
     FM231000 14012G20KT P6SM -DZ OVC005
     FM231300 15013G21KT P6SM OVC005
     FM231600 17016G26KT P6SM BKN008
     FM231700 17019G28KT P6SM BKN015=

USA.gov is the U.S. government's official web portal to all federal, state and local government web resources and services.